createdAt,value
2019-05-13T10:57:53.204Z,1046.52
2019-05-13T10:58:53.618Z,1046.47
2019-05-13T10:59:53.204Z,1046.36
2019-05-13T11:00:53.201Z,1046.25
2019-05-13T11:01:53.197Z,1046.34
2019-05-13T11:02:53.195Z,1046.32
2019-05-13T11:03:53.194Z,1046.35
2019-05-13T11:04:53.190Z,1046.35
2019-05-13T11:05:53.209Z,1046.45
2019-05-13T11:06:53.187Z,1046.5
2019-05-13T11:07:53.184Z,1046.57
2019-05-13T11:08:53.318Z,1046.61
2019-05-13T11:09:53.182Z,1046.54
2019-05-13T11:10:53.382Z,1046.56
2019-05-13T11:11:53.239Z,1046.58
2019-05-13T11:12:53.174Z,1046.55
2019-05-13T11:13:58.987Z,1046.55
2019-05-13T11:16:23.057Z,1046.58
2019-05-13T11:17:30.589Z,1046.55
2019-05-13T11:18:24.342Z,1046.52
2019-05-13T11:19:23.495Z,1046.71
2019-05-13T11:20:23.043Z,1046.84
2019-05-13T11:21:23.041Z,1046.98
2019-05-13T11:22:23.037Z,1046.99
2019-05-13T11:23:23.492Z,1047.06
2019-05-13T11:24:23.114Z,1047.23
2019-05-13T11:25:23.030Z,1047.33
2019-05-13T11:26:23.027Z,1047.43
2019-05-13T11:27:23.439Z,1047.57
2019-05-13T11:28:23.022Z,1047.7
2019-05-13T11:29:23.346Z,1047.77
2019-05-13T11:30:23.014Z,1047.86
2019-05-13T11:31:23.013Z,1047.83
2019-05-13T11:32:23.010Z,1047.69
2019-05-13T11:33:23.007Z,1047.45
2019-05-13T11:34:23.005Z,1047.21
2019-05-13T11:35:23.012Z,1046.89
2019-05-13T11:36:23.695Z,1046.57
2019-05-13T11:37:23.392Z,1046.35
2019-05-13T11:38:22.992Z,1046.17
2019-05-13T11:39:22.989Z,1046.07
2019-05-13T11:40:22.986Z,1046.05
2019-05-13T11:41:23.133Z,1046.05
2019-05-13T11:42:23.011Z,1046.07
2019-05-13T11:43:27.640Z,1046.07
2019-05-13T11:44:23.057Z,1046.07
2019-05-13T11:45:22.972Z,1046.16
2019-05-13T11:46:22.969Z,1046.19
2019-05-13T11:47:22.965Z,1046.28
2019-05-13T11:48:23.638Z,1046.36
2019-05-13T11:49:22.960Z,1046.4
2019-05-13T11:50:22.958Z,1046.5
2019-05-13T11:51:24.009Z,1046.54
2019-05-13T11:52:22.952Z,1046.52
2019-05-13T11:53:38.455Z,1046.56
2019-05-13T11:54:22.946Z,1046.53
2019-05-13T11:55:23.172Z,1046.57
2019-05-13T11:56:23.205Z,1046.64
2019-05-13T11:57:22.939Z,1046.7
2019-05-13T11:58:23.208Z,1046.76
2019-05-13T11:59:22.931Z,1046.94
2019-05-13T12:00:22.930Z,1046.98
2019-05-13T12:01:23.142Z,1047.13
2019-05-13T12:02:23.427Z,1047.28
2019-05-13T12:03:23.423Z,1047.38
2019-05-13T12:04:23.920Z,1047.5
2019-05-13T12:05:22.914Z,1047.52
2019-05-13T12:06:23.590Z,1047.59
2019-05-13T12:07:23.314Z,1047.49
2019-05-13T12:08:23.130Z,1047.61
2019-05-13T12:09:22.900Z,1047.66
2019-05-13T12:10:22.957Z,1047.73
2019-05-13T12:11:22.893Z,1047.72
2019-05-13T12:12:30.118Z,1047.69
2019-05-13T12:17:45.517Z,1047.33
2019-05-13T12:18:45.551Z,1047.38
2019-05-13T12:19:45.503Z,1047.36
2019-05-13T12:20:45.500Z,1047.3
2019-05-13T12:21:46.830Z,1047.33
2019-05-13T12:22:45.491Z,1047.4
2019-05-13T12:23:45.488Z,1047.32
2019-05-13T12:24:45.483Z,1047.31
2019-05-13T12:25:45.479Z,1047.17
2019-05-13T12:26:45.476Z,1047.2
2019-05-13T12:27:45.474Z,1047.38
2019-05-13T12:28:45.470Z,1047.42
2019-05-13T12:29:45.464Z,1047.33
2019-05-13T12:30:45.461Z,1047.17
2019-05-13T12:31:45.458Z,1046.98
2019-05-13T12:32:45.454Z,1046.86
2019-05-13T12:33:45.449Z,1046.67
2019-05-13T12:34:46.090Z,1046.49
2019-05-13T12:35:45.442Z,1046.26
2019-05-13T12:36:45.439Z,1046.17
2019-05-13T12:37:45.437Z,1045.99
2019-05-13T12:38:45.434Z,1045.97
2019-05-13T12:39:45.427Z,1045.99
2019-05-13T12:40:45.423Z,1046.01
2019-05-13T12:41:45.420Z,1045.94
2019-05-13T12:42:47.159Z,1046.04
2019-05-13T12:43:45.413Z,1045.95
2019-05-13T12:45:00.209Z,1046.26
2019-05-13T12:45:45.405Z,1046.34
2019-05-13T12:46:50.091Z,1046.36
2019-05-13T12:47:45.399Z,1046.37
2019-05-13T12:48:45.396Z,1046.44
2019-05-13T12:49:45.393Z,1046.61
2019-05-13T12:50:45.390Z,1046.61
2019-05-13T12:51:45.386Z,1046.87
2019-05-13T12:52:45.383Z,1047.01
2019-05-13T12:53:45.380Z,1047.2
2019-05-13T12:54:45.379Z,1047.42
2019-05-13T12:55:52.046Z,1047.43
2019-05-13T12:58:08.040Z,1047.54
2019-05-13T12:59:08.031Z,1047.7
2019-05-13T13:00:08.027Z,1047.64
2019-05-13T13:01:08.025Z,1047.7
2019-05-13T13:02:08.054Z,1047.63
2019-05-13T13:03:08.015Z,1047.59
2019-05-13T13:04:08.012Z,1047.7
2019-05-13T13:05:09.341Z,1047.61
2019-05-13T13:06:26.823Z,1047.45
2019-05-13T13:08:54.996Z,1047.34
2019-05-13T13:09:54.987Z,1047.28
2019-05-13T13:10:54.982Z,1047.07
2019-05-13T13:11:54.977Z,1046.87
2019-05-13T13:12:55.108Z,1046.75
2019-05-13T13:13:59.281Z,1046.64
2019-05-13T13:14:54.965Z,1046.43
2019-05-13T13:15:54.961Z,1046.33
2019-05-13T13:16:54.958Z,1046.25
2019-05-13T13:17:54.954Z,1046.35
2019-05-13T13:18:54.951Z,1046.28
2019-05-13T13:20:04.545Z,1046.2
2019-05-13T13:21:00.105Z,1046.19
2019-05-13T13:22:02.426Z,1046.17
2019-05-13T13:22:54.934Z,1046.1
2019-05-13T13:23:54.931Z,1046.03
2019-05-13T13:24:57.177Z,1045.93
2019-05-13T13:25:57.112Z,1045.9
2019-05-13T13:28:24.243Z,1045.86
2019-05-13T13:29:23.238Z,1045.83
2019-05-13T13:30:23.233Z,1045.83
2019-05-13T13:31:24.933Z,1045.84
2019-05-13T13:32:24.561Z,1045.75
2019-05-13T13:33:23.223Z,1045.97
2019-05-13T13:34:25.733Z,1045.76
2019-05-13T13:35:23.216Z,1046.04
2019-05-13T13:36:24.132Z,1045.97
2019-05-13T13:37:23.209Z,1045.98
2019-05-13T13:38:25.002Z,1046.16
2019-05-13T13:39:25.170Z,1045.96
2019-05-13T13:40:28.260Z,1045.95
2019-05-13T13:41:23.195Z,1045.98
2019-05-13T13:42:23.193Z,1045.91
2019-05-13T13:43:24.581Z,1045.85
2019-05-13T13:44:24.481Z,1045.87
2019-05-13T13:46:57.919Z,1045.97
2019-05-13T13:48:03.446Z,1045.92
2019-05-13T13:48:57.905Z,1045.88
2019-05-13T13:49:57.902Z,1045.81
2019-05-13T13:50:57.900Z,1045.76
2019-05-13T13:51:57.949Z,1045.76
2019-05-13T13:52:57.892Z,1045.85
2019-05-13T13:53:57.888Z,1045.86
2019-05-13T13:55:02.800Z,1046.05
2019-05-13T13:55:57.881Z,1046.22
2019-05-13T13:56:57.879Z,1046.22
2019-05-13T13:57:57.874Z,1046.58
2019-05-13T13:58:57.871Z,1046.44
2019-05-13T14:00:19.681Z,1046.55
2019-05-13T14:01:27.860Z,1046.72
2019-05-13T14:02:27.797Z,1046.84
2019-05-13T14:03:27.793Z,1046.86
2019-05-13T14:04:27.790Z,1047
2019-05-13T14:05:27.785Z,1047.16
2019-05-13T14:07:45.346Z,1047.1
2019-05-13T14:08:45.269Z,1047.05
2019-05-13T14:09:45.267Z,1047.08
2019-05-13T14:10:45.262Z,1047.11
2019-05-13T14:11:45.271Z,1047.11
2019-05-13T14:12:45.253Z,1047.06
2019-05-13T14:13:45.249Z,1047.09
2019-05-13T14:14:45.245Z,1047.08
2019-05-13T14:15:45.242Z,1047.1
2019-05-13T14:16:46.710Z,1047.24
2019-05-13T14:17:45.231Z,1047.22
2019-05-13T14:18:45.227Z,1047.16
2019-05-13T14:19:45.221Z,1047.09
2019-05-13T14:20:45.218Z,1047.02
2019-05-13T14:21:45.212Z,1047
2019-05-13T14:22:45.209Z,1046.98
2019-05-13T14:23:45.203Z,1046.96
2019-05-13T14:24:45.199Z,1046.95
2019-05-13T14:25:45.194Z,1046.86
2019-05-13T14:26:45.189Z,1046.92
2019-05-13T14:27:45.187Z,1046.98
2019-05-13T14:28:45.181Z,1047.02
2019-05-13T14:29:49.040Z,1047.04
2019-05-13T14:30:45.170Z,1047
2019-05-13T14:31:45.166Z,1047.19
2019-05-13T14:32:45.161Z,1047.23
2019-05-13T14:33:45.156Z,1047.28
2019-05-13T14:34:45.151Z,1047.36
2019-05-13T14:35:45.145Z,1047.29
2019-05-13T14:36:45.140Z,1047.32
2019-05-13T14:37:45.135Z,1047.42
2019-05-13T14:38:45.131Z,1047.31
2019-05-13T14:39:45.127Z,1047.32
2019-05-13T14:40:45.310Z,1047.4
2019-05-13T14:41:45.116Z,1047.39
2019-05-13T14:42:45.114Z,1047.39
2019-05-13T14:43:45.106Z,1047.33
2019-05-13T14:44:45.101Z,1047.28
2019-05-13T14:45:45.096Z,1047.19
2019-05-13T14:46:47.749Z,1047.03
2019-05-13T14:47:45.089Z,1046.91
2019-05-13T14:48:45.088Z,1046.73
2019-05-13T14:49:45.075Z,1046.63
2019-05-13T14:50:45.164Z,1046.5
2019-05-13T14:51:45.066Z,1046.4
2019-05-13T14:52:45.060Z,1046.32
2019-05-13T14:53:45.056Z,1046.14
2019-05-13T14:54:45.052Z,1046.06
2019-05-13T14:55:45.045Z,1046.01
2019-05-13T14:56:45.043Z,1045.93
2019-05-13T14:57:45.036Z,1046.02
2019-05-13T14:58:45.032Z,1046.15
2019-05-13T14:59:45.036Z,1046.35
2019-05-13T15:00:45.070Z,1046.41
2019-05-13T15:01:45.019Z,1046.46
2019-05-13T15:02:45.014Z,1046.62
2019-05-13T15:03:45.035Z,1046.68
2019-05-13T15:04:45.004Z,1046.76
2019-05-13T15:05:45.000Z,1046.77
2019-05-13T15:06:44.995Z,1046.67
2019-05-13T15:07:44.988Z,1046.6
2019-05-13T15:08:44.984Z,1046.63
2019-05-13T15:09:44.981Z,1046.58
2019-05-13T15:10:45.009Z,1046.81
2019-05-13T15:11:44.972Z,1046.93
2019-05-13T15:12:44.967Z,1047.18
2019-05-13T15:13:44.962Z,1047.34
2019-05-13T15:14:44.955Z,1047.31
2019-05-13T15:15:44.952Z,1047.4
2019-05-13T15:17:00.527Z,1047.4
2019-05-13T15:17:45.092Z,1047.35
2019-05-13T15:18:44.938Z,1047.25
2019-05-13T15:19:44.931Z,1047.17
2019-05-13T15:20:44.938Z,1047.04
2019-05-13T15:21:44.922Z,1046.88
2019-05-13T15:22:44.920Z,1046.72
2019-05-13T15:23:44.913Z,1046.61
2019-05-13T15:24:44.908Z,1046.53
2019-05-13T15:25:44.903Z,1046.47
2019-05-13T15:26:44.927Z,1046.35
2019-05-13T15:27:44.893Z,1046.29
2019-05-13T15:28:44.889Z,1046.23
2019-05-13T15:29:44.882Z,1046.19
2019-05-13T15:30:44.877Z,1046.15
2019-05-13T15:31:44.874Z,1046.15
2019-05-13T15:32:44.869Z,1046.14
2019-05-13T15:33:44.864Z,1046.15
2019-05-13T15:34:44.860Z,1046.25
2019-05-13T15:35:44.854Z,1046.37
2019-05-13T15:36:44.849Z,1046.44
2019-05-13T15:37:44.844Z,1046.57
2019-05-13T15:38:44.841Z,1046.62
2019-05-13T15:39:44.839Z,1046.64
2019-05-13T15:40:44.829Z,1046.7
2019-05-13T15:41:44.828Z,1046.72
2019-05-13T15:42:44.822Z,1046.71
2019-05-13T15:43:44.816Z,1046.72
2019-05-13T15:44:44.812Z,1046.75
2019-05-13T15:45:44.808Z,1046.8
2019-05-13T15:46:44.803Z,1046.87
2019-05-13T15:47:44.798Z,1046.95
2019-05-13T15:48:44.792Z,1046.99
2019-05-13T15:49:44.787Z,1047
2019-05-13T15:50:44.783Z,1047.02
2019-05-13T15:51:44.783Z,1047.08
2019-05-13T15:52:44.774Z,1047.09
2019-05-13T15:53:44.767Z,1047.12
2019-05-13T15:54:44.761Z,1047.11
2019-05-13T15:55:44.757Z,1047.1
2019-05-13T15:56:44.788Z,1047.12
2019-05-13T15:57:44.747Z,1047.14
2019-05-13T15:58:44.890Z,1047.11
2019-05-13T15:59:44.737Z,1047.21
2019-05-13T16:00:44.731Z,1047.21
2019-05-13T16:01:44.727Z,1047.16
2019-05-13T16:02:44.721Z,1047.14
2019-05-13T16:03:44.716Z,1047.14
2019-05-13T16:04:52.043Z,1047.1
2019-05-13T16:05:44.704Z,1047.11
2019-05-13T16:06:44.698Z,1047.06
2019-05-13T16:07:44.715Z,1047.02
2019-05-13T16:08:44.690Z,1046.88
2019-05-13T16:09:44.683Z,1046.8
2019-05-13T16:10:44.680Z,1046.74
2019-05-13T16:11:44.671Z,1046.71
2019-05-13T16:12:44.676Z,1046.72
2019-05-13T16:13:44.659Z,1046.7
2019-05-13T16:14:44.658Z,1046.62
2019-05-13T16:15:44.650Z,1046.64
2019-05-13T16:16:44.644Z,1046.62
2019-05-13T16:17:45.097Z,1046.62
2019-05-13T16:18:44.638Z,1046.62
2019-05-13T16:19:44.628Z,1046.63
2019-05-13T16:20:45.409Z,1046.69
2019-05-13T16:21:44.618Z,1046.67
2019-05-13T16:22:44.612Z,1046.72
2019-05-13T16:23:44.605Z,1046.73
2019-05-13T16:24:44.598Z,1046.81
2019-05-13T16:25:44.595Z,1046.81
2019-05-13T16:26:44.594Z,1046.99
2019-05-13T16:27:44.583Z,1047.04
2019-05-13T16:28:44.579Z,1047.07
2019-05-13T16:29:44.572Z,1047.18
2019-05-13T16:30:44.569Z,1047.22
2019-05-13T16:31:44.560Z,1047.24
2019-05-13T16:32:47.914Z,1047.24
2019-05-13T16:33:44.550Z,1047.33
2019-05-13T16:34:44.544Z,1047.27
2019-05-13T16:35:44.538Z,1047.34
2019-05-13T16:36:44.531Z,1047.4
2019-05-13T16:37:44.525Z,1047.32
2019-05-13T16:38:44.546Z,1047.33
2019-05-13T16:39:44.516Z,1047.35
2019-05-13T16:40:44.509Z,1047.42
2019-05-13T16:41:44.503Z,1047.39
2019-05-13T16:42:44.507Z,1047.36
2019-05-13T16:43:44.491Z,1047.35
2019-05-13T16:44:44.491Z,1047.31
2019-05-13T16:45:44.478Z,1047.32
2019-05-13T16:46:44.473Z,1047.29
2019-05-13T16:47:56.517Z,1047.34
2019-05-13T16:48:44.464Z,1047.35
2019-05-13T16:49:44.469Z,1047.34
2019-05-13T16:50:44.449Z,1047.31
2019-05-13T16:51:44.442Z,1047.31
2019-05-13T16:52:44.435Z,1047.35
2019-05-13T16:53:44.432Z,1047.33
2019-05-13T16:54:44.426Z,1047.4
2019-05-13T16:55:44.418Z,1047.4
2019-05-13T16:56:44.410Z,1047.42
2019-05-13T16:57:44.405Z,1047.44
2019-05-13T16:58:44.399Z,1047.5
2019-05-13T16:59:44.394Z,1047.53
2019-05-13T17:00:44.387Z,1047.55
2019-05-13T17:01:44.381Z,1047.61
2019-05-13T17:02:44.375Z,1047.59
2019-05-13T17:03:44.370Z,1047.59
2019-05-13T17:04:44.361Z,1047.57
2019-05-13T17:05:44.355Z,1047.61
2019-05-13T17:06:44.348Z,1047.7
2019-05-13T17:07:44.341Z,1047.81
2019-05-13T17:08:44.336Z,1047.91
2019-05-13T17:09:44.330Z,1048.16
2019-05-13T17:10:44.324Z,1048.21
2019-05-13T17:11:44.318Z,1048.3
2019-05-13T17:12:44.313Z,1048.41
2019-05-13T17:13:44.304Z,1048.5
2019-05-13T17:14:44.298Z,1048.62
2019-05-13T17:15:44.296Z,1048.61
2019-05-13T17:16:44.284Z,1048.6
2019-05-13T17:17:44.278Z,1048.54
2019-05-13T17:18:44.271Z,1048.52
2019-05-13T17:19:44.264Z,1048.47
2019-05-13T17:20:44.265Z,1048.35
2019-05-13T17:21:44.250Z,1048.31
2019-05-13T17:22:44.249Z,1048.3
2019-05-13T17:23:44.239Z,1048.33
2019-05-13T17:24:44.230Z,1048.39
2019-05-13T17:25:44.224Z,1048.44
2019-05-13T17:26:44.219Z,1048.38
2019-05-13T17:28:44.206Z,1048.44
2019-05-13T17:29:44.196Z,1048.38
2019-05-13T17:30:44.195Z,1048.41
2019-05-13T17:31:44.183Z,1048.42
2019-05-13T17:32:44.175Z,1048.4
2019-05-13T17:33:44.167Z,1048.4
2019-05-13T17:34:45.987Z,1048.38
2019-05-13T17:35:44.153Z,1048.38
2019-05-13T17:36:44.146Z,1048.38
2019-05-13T17:37:44.140Z,1048.37
2019-05-13T17:38:44.133Z,1048.37
2019-05-13T17:39:44.126Z,1048.43
2019-05-13T17:40:47.814Z,1048.41
2019-05-13T17:41:44.113Z,1048.35
2019-05-13T17:42:44.105Z,1048.4
2019-05-13T17:43:44.097Z,1048.43
2019-05-13T17:44:46.227Z,1048.42
2019-05-13T17:45:44.082Z,1048.43
2019-05-13T17:46:44.081Z,1048.45
2019-05-13T17:47:44.066Z,1048.42
2019-05-13T17:48:44.059Z,1048.5
2019-05-13T17:49:44.053Z,1048.47
2019-05-13T17:50:44.046Z,1048.47
2019-05-13T17:51:44.042Z,1048.46
2019-05-13T17:52:44.030Z,1048.51
2019-05-13T17:53:44.023Z,1048.49
2019-05-13T17:54:44.016Z,1048.5
2019-05-13T17:55:44.006Z,1048.48
2019-05-13T17:56:44.000Z,1048.51
2019-05-13T17:57:43.996Z,1048.58
2019-05-13T17:58:43.985Z,1048.58
2019-05-13T17:59:43.979Z,1048.61
2019-05-13T18:00:43.969Z,1048.6
2019-05-13T18:01:43.963Z,1048.57
2019-05-13T18:02:43.955Z,1048.58
2019-05-13T18:03:43.948Z,1048.57
2019-05-13T18:04:43.945Z,1048.53
2019-05-13T18:05:43.932Z,1048.5
2019-05-13T18:06:43.932Z,1048.5
2019-05-13T18:07:43.916Z,1048.53
2019-05-13T18:08:43.910Z,1048.47
2019-05-13T18:09:43.908Z,1048.47
2019-05-13T18:10:43.894Z,1048.44
2019-05-13T18:11:43.887Z,1048.45
2019-05-13T18:12:43.879Z,1048.45
2019-05-13T18:13:43.901Z,1048.49
2019-05-13T18:14:43.864Z,1048.53
2019-05-13T18:15:43.860Z,1048.55
2019-05-13T18:16:43.850Z,1048.57
2019-05-13T18:17:43.840Z,1048.6
2019-05-13T18:18:47.202Z,1048.59
2019-05-13T18:19:43.826Z,1048.6
2019-05-13T18:20:43.817Z,1048.6
2019-05-13T18:21:43.812Z,1048.64
2019-05-13T18:22:43.803Z,1048.66
2019-05-13T18:23:43.795Z,1048.65
2019-05-13T18:24:43.787Z,1048.61
2019-05-13T18:25:43.796Z,1048.62
2019-05-13T18:26:43.771Z,1048.63
2019-05-13T18:27:43.764Z,1048.61
2019-05-13T18:28:43.756Z,1048.63
2019-05-13T18:29:43.748Z,1048.65
2019-05-13T18:30:43.740Z,1048.7
2019-05-13T18:31:43.734Z,1048.68
2019-05-13T18:32:43.724Z,1048.69
2019-05-13T18:33:43.716Z,1048.74
2019-05-13T18:34:43.709Z,1048.77
2019-05-13T18:35:43.700Z,1048.75
2019-05-13T18:36:43.692Z,1048.77
2019-05-13T18:37:43.684Z,1048.77
2019-05-13T18:38:43.676Z,1048.77
2019-05-13T18:39:43.668Z,1048.75
2019-05-13T18:40:43.661Z,1048.78
2019-05-13T18:41:43.656Z,1048.79
2019-05-13T18:42:43.644Z,1048.8
2019-05-13T18:43:43.636Z,1048.79
2019-05-13T18:44:43.629Z,1048.77
2019-05-13T18:45:43.625Z,1048.77
2019-05-13T18:46:43.612Z,1048.83
2019-05-13T18:47:43.604Z,1048.8
2019-05-13T18:48:58.029Z,1048.86
2019-05-13T18:49:43.587Z,1048.86
2019-05-13T18:50:43.579Z,1048.91
2019-05-13T18:51:43.571Z,1048.98
2019-05-13T18:52:43.565Z,1049.01
2019-05-13T18:53:43.555Z,1049.05
2019-05-13T18:54:43.547Z,1049.11
2019-05-13T18:55:43.538Z,1049.15
2019-05-13T18:56:46.346Z,1049.2
2019-05-13T18:57:43.522Z,1049.24
2019-05-13T18:58:43.514Z,1049.28
2019-05-13T18:59:43.505Z,1049.27
2019-05-13T19:00:44.710Z,1049.3
2019-05-13T19:01:43.488Z,1049.3
2019-05-13T19:02:43.480Z,1049.35
2019-05-13T19:03:43.473Z,1049.43
2019-05-13T19:04:43.462Z,1049.44
2019-05-13T19:05:43.454Z,1049.54
2019-05-13T19:06:43.446Z,1049.81
2019-05-13T19:07:43.441Z,1049.7
2019-05-13T19:08:43.428Z,1049.66
2019-05-13T19:09:43.420Z,1049.75
2019-05-13T19:10:43.410Z,1049.73
2019-05-13T19:11:43.403Z,1049.69
2019-05-13T19:12:43.395Z,1049.71
2019-05-13T19:13:43.386Z,1049.7
2019-05-13T19:14:43.378Z,1049.72
2019-05-13T19:15:43.368Z,1049.73
2019-05-13T19:16:43.359Z,1049.74
2019-05-13T19:17:43.351Z,1049.78
2019-05-13T19:18:43.344Z,1049.78
2019-05-13T19:19:43.334Z,1049.85
2019-05-13T19:20:43.324Z,1049.86
2019-05-13T19:21:43.319Z,1049.85
2019-05-13T19:22:43.307Z,1049.85
2019-05-13T19:23:43.297Z,1049.85
2019-05-13T19:24:43.289Z,1049.86
2019-05-13T19:25:43.280Z,1049.82
2019-05-13T19:26:43.270Z,1049.88
2019-05-13T19:27:43.261Z,1049.92
2019-05-13T19:28:43.252Z,1050.06
2019-05-13T19:29:43.243Z,1049.85
2019-05-13T19:30:43.248Z,1049.9
2019-05-13T19:31:43.225Z,1049.9
2019-05-13T19:32:43.216Z,1049.93
2019-05-13T19:34:43.198Z,1049.91
2019-05-13T19:35:43.190Z,1049.96
2019-05-13T19:36:43.180Z,1049.95
2019-05-13T19:37:43.175Z,1049.9
2019-05-13T19:38:43.162Z,1049.93
2019-05-13T19:39:43.152Z,1049.92
2019-05-13T19:40:43.142Z,1049.97
2019-05-13T19:41:43.133Z,1049.94
2019-05-13T19:42:43.124Z,1049.94
2019-05-13T19:43:43.114Z,1049.92
2019-05-13T19:44:43.105Z,1049.92
2019-05-13T19:45:43.097Z,1049.92
2019-05-13T19:46:43.088Z,1049.91
2019-05-13T19:47:43.079Z,1049.9
2019-05-13T19:48:43.069Z,1049.94
2019-05-13T19:49:46.420Z,1049.91
2019-05-13T19:50:43.051Z,1049.9
2019-05-13T19:51:43.048Z,1049.92
2019-05-13T19:52:43.034Z,1049.91
2019-05-13T19:53:44.892Z,1049.96
2019-05-13T19:54:43.014Z,1049.99
2019-05-13T19:55:43.007Z,1049.98
2019-05-13T19:56:42.995Z,1050.04
2019-05-13T19:57:42.986Z,1050.07
2019-05-13T19:58:42.977Z,1050.1
2019-05-13T19:59:42.967Z,1050.12
2019-05-13T20:00:42.958Z,1050.13
2019-05-13T20:01:42.949Z,1050.1
2019-05-13T20:02:42.940Z,1050.1
2019-05-13T20:03:42.930Z,1050.12
2019-05-13T20:04:42.920Z,1050.06
2019-05-13T20:05:42.910Z,1050.08
2019-05-13T20:06:42.900Z,1050.06
2019-05-13T20:07:42.900Z,1050.08
2019-05-13T20:08:42.882Z,1050.1
2019-05-13T20:09:42.908Z,1050.13
2019-05-13T20:10:42.862Z,1050.11
2019-05-13T20:11:42.853Z,1050.15
2019-05-13T20:12:42.843Z,1050.12
2019-05-13T20:13:42.834Z,1050.13
2019-05-13T20:14:42.823Z,1050.12
2019-05-13T20:15:42.815Z,1050.16
2019-05-13T20:16:42.804Z,1050.14
2019-05-13T20:17:42.794Z,1050.14
2019-05-13T20:18:42.787Z,1050.18
2019-05-13T20:19:49.895Z,1050.17
2019-05-13T20:20:42.771Z,1050.16
2019-05-13T20:21:42.774Z,1050.18
2019-05-13T20:22:42.747Z,1050.19
2019-05-13T20:23:42.737Z,1050.21
2019-05-13T20:24:42.728Z,1050.23
2019-05-13T20:25:42.717Z,1050.29
2019-05-13T20:26:42.709Z,1050.27
2019-05-13T20:27:42.698Z,1050.27
2019-05-13T20:28:42.688Z,1050.28
2019-05-13T20:29:42.677Z,1050.31
2019-05-13T20:30:45.325Z,1050.29
2019-05-13T20:31:42.659Z,1050.35
2019-05-13T20:32:42.649Z,1050.35
2019-05-13T20:33:43.020Z,1050.34
2019-05-13T20:34:42.632Z,1050.37
2019-05-13T20:35:42.620Z,1050.39
2019-05-13T20:36:42.611Z,1050.38
2019-05-13T20:37:42.599Z,1050.41
2019-05-13T20:38:42.590Z,1050.39
2019-05-13T20:39:42.651Z,1050.4
2019-05-13T20:40:42.569Z,1050.38
2019-05-13T20:41:42.560Z,1050.43
2019-05-13T20:42:42.549Z,1050.41
2019-05-13T20:43:42.798Z,1050.43
2019-05-13T20:44:42.530Z,1050.49
2019-05-13T20:45:42.519Z,1050.46
2019-05-13T20:46:42.510Z,1050.47
2019-05-13T20:47:42.499Z,1050.48
2019-05-13T20:48:42.490Z,1050.51
2019-05-13T20:49:42.481Z,1050.53
2019-05-13T20:50:42.470Z,1050.56
2019-05-13T20:51:42.466Z,1050.6
2019-05-13T20:52:42.450Z,1050.62
2019-05-13T20:53:42.440Z,1050.61
2019-05-13T20:54:42.429Z,1050.62
2019-05-13T20:55:42.418Z,1050.64
2019-05-13T20:56:42.465Z,1050.62
2019-05-13T20:57:42.397Z,1050.64
2019-05-13T20:58:42.388Z,1050.59
2019-05-13T20:59:42.378Z,1050.56
2019-05-13T21:00:42.428Z,1050.56
2019-05-13T21:01:42.356Z,1050.58
2019-05-13T21:02:42.349Z,1050.61
2019-05-13T21:03:42.337Z,1050.58
2019-05-13T21:04:42.327Z,1050.62
2019-05-13T21:05:42.315Z,1050.68
2019-05-13T21:06:42.452Z,1050.68
2019-05-13T21:07:42.311Z,1050.66
2019-05-13T21:08:42.300Z,1050.67
2019-05-13T21:09:42.466Z,1050.66
2019-05-13T21:10:42.291Z,1050.7
2019-05-13T21:11:42.253Z,1050.67
2019-05-13T21:12:42.245Z,1050.68
2019-05-13T21:13:42.232Z,1050.71
2019-05-13T21:14:42.222Z,1050.7
2019-05-13T21:15:42.559Z,1050.7
2019-05-13T21:16:42.201Z,1050.68
2019-05-13T21:17:42.190Z,1050.69
2019-05-13T21:18:42.314Z,1050.69
2019-05-13T21:19:42.823Z,1050.71
2019-05-13T21:20:42.157Z,1050.67
2019-05-13T21:21:42.148Z,1050.7
2019-05-13T21:22:42.424Z,1050.69
2019-05-13T21:23:42.126Z,1050.64
2019-05-13T21:24:42.116Z,1050.64
2019-05-13T21:25:42.105Z,1050.67
2019-05-13T21:26:42.152Z,1050.7
2019-05-13T21:27:42.188Z,1050.68
2019-05-13T21:28:42.074Z,1050.69
2019-05-13T21:29:42.063Z,1050.67
2019-05-13T21:30:42.114Z,1050.65
2019-05-13T21:31:42.050Z,1050.62
2019-05-13T21:32:42.031Z,1050.65
2019-05-13T21:33:42.022Z,1050.65
2019-05-13T21:34:42.007Z,1050.65
2019-05-13T21:35:42.093Z,1050.63
2019-05-13T21:36:41.987Z,1050.7
2019-05-13T21:37:41.980Z,1050.63
2019-05-13T21:38:41.965Z,1050.68
2019-05-13T21:39:41.954Z,1050.7
2019-05-13T21:40:41.943Z,1050.7
2019-05-13T21:41:41.932Z,1050.69
2019-05-13T21:42:42.123Z,1050.73
2019-05-13T21:43:41.911Z,1050.73
2019-05-13T21:44:42.120Z,1050.74
2019-05-13T21:45:41.888Z,1050.75
2019-05-13T21:46:41.877Z,1050.78
2019-05-13T21:47:41.867Z,1050.77
2019-05-13T21:48:41.860Z,1050.77
2019-05-13T21:49:42.406Z,1050.78
2019-05-13T21:50:41.833Z,1050.81
2019-05-13T21:51:41.964Z,1050.82
2019-05-13T21:52:42.004Z,1050.82
2019-05-13T21:53:41.802Z,1050.8
2019-05-13T21:54:42.219Z,1050.79
2019-05-13T21:55:41.778Z,1050.8
2019-05-13T21:56:42.582Z,1050.84
2019-05-13T21:57:41.756Z,1050.78
2019-05-13T21:58:41.767Z,1050.81
2019-05-13T21:59:44.701Z,1050.79
2019-05-13T22:00:41.819Z,1050.82
2019-05-13T22:01:42.340Z,1050.83
2019-05-13T22:02:41.699Z,1050.82
2019-05-13T22:03:42.148Z,1050.83
2019-05-13T22:04:41.676Z,1050.85
2019-05-13T22:05:41.666Z,1050.9
2019-05-13T22:06:41.655Z,1050.87
2019-05-13T22:07:42.169Z,1050.86
2019-05-13T22:08:41.631Z,1050.86
2019-05-13T22:09:42.221Z,1050.8
2019-05-13T22:10:41.725Z,1050.74
2019-05-13T22:11:42.085Z,1050.73
2019-05-13T22:12:41.591Z,1050.72
2019-05-13T22:13:42.013Z,1050.68
2019-05-13T22:14:41.563Z,1050.67
2019-05-13T22:15:41.708Z,1050.62
2019-05-13T22:16:41.540Z,1050.6
2019-05-13T22:17:42.181Z,1050.66
2019-05-13T22:18:41.822Z,1050.63
2019-05-13T22:20:49.572Z,1050.56
2019-05-13T22:21:42.290Z,1050.56
2019-05-13T22:22:41.615Z,1050.5
2019-05-13T22:23:41.463Z,1050.47
2019-05-13T22:24:41.885Z,1050.42
2019-05-13T22:25:43.628Z,1050.42
2019-05-13T22:26:42.055Z,1050.39
2019-05-13T22:27:41.431Z,1050.37
2019-05-13T22:28:41.783Z,1050.37
2019-05-13T22:29:41.583Z,1050.36
2019-05-13T22:30:41.405Z,1050.37
2019-05-13T22:31:41.945Z,1050.33
2019-05-13T22:32:41.801Z,1050.31
2019-05-13T22:33:41.414Z,1050.3
2019-05-13T22:34:41.884Z,1050.28
2019-05-13T22:35:41.674Z,1050.28
2019-05-13T22:36:41.327Z,1050.31
2019-05-13T22:37:41.303Z,1050.3
2019-05-13T22:38:42.562Z,1050.31
2019-05-13T22:39:42.048Z,1050.31
2019-05-13T22:40:41.920Z,1050.27
2019-05-13T22:41:42.048Z,1050.32
2019-05-13T22:42:41.617Z,1050.28
2019-05-13T22:43:54.233Z,1050.28
2019-05-13T22:44:41.670Z,1050.23
2019-05-13T22:45:41.833Z,1050.27
2019-05-13T22:46:41.463Z,1050.24
2019-05-13T22:47:41.683Z,1050.25
2019-05-13T22:48:41.893Z,1050.23
2019-05-13T22:49:41.170Z,1050.26
2019-05-13T22:50:41.542Z,1050.25
2019-05-13T22:51:41.384Z,1050.22
2019-05-13T22:52:41.816Z,1050.21
2019-05-13T22:53:42.164Z,1050.23
2019-05-13T22:54:41.336Z,1050.14
2019-05-13T22:55:41.757Z,1050.13
2019-05-13T22:56:41.337Z,1050.1
2019-05-13T22:57:41.897Z,1050.12
2019-05-13T22:58:41.255Z,1050.11
2019-05-13T22:59:41.543Z,1050.06
2019-05-13T23:00:42.303Z,1050.06
2019-05-13T23:01:41.765Z,1050.05
2019-05-13T23:02:42.032Z,1050.06
2019-05-13T23:03:41.263Z,1050.03
2019-05-13T23:04:41.808Z,1050.03
2019-05-13T23:05:41.569Z,1050.01
2019-05-13T23:06:40.986Z,1050
2019-05-13T23:07:40.971Z,1050
2019-05-13T23:08:40.961Z,1050.02
2019-05-13T23:09:41.641Z,1050
2019-05-13T23:10:42.043Z,1049.98
2019-05-13T23:11:41.743Z,1050
2019-05-13T23:12:42.010Z,1049.98
2019-05-13T23:13:42.117Z,1050.02
2019-05-13T23:14:41.394Z,1050.01
2019-05-13T23:15:40.883Z,1050.09
2019-05-13T23:16:42.098Z,1050.08
2019-05-13T23:17:41.476Z,1050.11
2019-05-13T23:18:42.037Z,1050.17
2019-05-13T23:19:41.439Z,1050.18
2019-05-13T23:20:41.078Z,1050.16
2019-05-13T23:21:41.757Z,1050.22
2019-05-13T23:22:41.410Z,1050.23
2019-05-13T23:23:40.797Z,1050.23